National Weather Service United States Department of Commerce

Heavy precipitation for parts of the Pacific Northwest

Moisture will continue to stream into the Pacific Northwest for the next several days. Heavy rain will continue along the coast, while heavy snow will impact the highest elevations of the Cascades. In the northern Plains and Upper Great Lakes, more arctic air will bring periods of snow, blustery winds and cold wind chills. Light snow is also possible in New England and the Ohio Valley. Read More >

                                       ZTL Airspace Summary / KCLT TAF                    For ATC Planning Purposes Only
ZTL Airspace Summary:
Weak high pressure will continue to dominate the airspace as a dry cold front approaches from the northwest later tonight. Expect VFR/MVFR conditions over ZTL. Surface winds will be north to southeast at 3-10kts. Flight Hazards: LGT-MOD Turbulence FL230-410 over all of ZTL and below 080 over TN/VA. LGT-MOD Rime Icing from FL180-250 over GA/SC/NC.

Updated:11/21/2017 3:25 PM
 

Charlotte/Douglas International Airport Terminal Aerodrome Forecast:
 
FTUS80 KCLT 212112 AAA
KCLT 212109Z 2121/2218 03003KT P6SM VCSH SCT060 BKN080
     FM220600 35003KT 5SM BR BKN025
     FM220900 33003KT 5SM BR SCT030
     FM221400 36006KT P6SM SCT150

 

CLT METAR:  
SAUS70 KCLT 212300
METAR KCLT 212252Z 04004KT 10SM BKN047 BKN060 OVC200 15/08 A3008 RMK AO2
     SLP184 T01500083

Go to KCLT TAF TDA
Go to KCLT TAF TDA

 
CLT TRACON HAZARDS
CLT TRACON: SFC-16000
AVG CIG BASE WHERE REPORTED BLW 10000FT: 6472.7272727273
LOWEST REPORTED CIG: 4700
LOWEST REPORTED FLIGHT CAT: VFR
METARS:
KIPJ 212255Z AUTO 00000KT 10SM BKN050 BKN065 BKN080 13/05 A3007 RMK AO2 T01260052
KDCM 212255Z AUTO 00000KT 10SM SCT047 OVC065 13/08 A3007 RMK AO2
KAFP 212245Z AUTO 00000KT 10SM SCT060 OVC100 14/09 A3008 RMK AO2 T01380092
KCLT 212252Z 04004KT 10SM BKN047 BKN060 OVC200 15/08 A3008 RMK AO2 SLP184 T01500083
KVUJ 212245Z AUTO 00000KT 10SM OVC060 13/10 A3012 RMK AO2 T01330096
KAKH 212254Z AUTO 04003KT 10SM FEW043 BKN050 OVC095 14/09 A3006 RMK AO2 SLP182 T01440094
KRUQ 212245Z AUTO 00000KT 10SM SCT070 BKN090 14/08 A3007 RMK AO2 T01360082
KLKR 212255Z AUTO 06003KT 10SM FEW060 SCT070 15/10 A3006 RMK AO2
KUZA 212254Z AUTO 00000KT 10SM FEW050 SCT065 BKN080 14/10 A3007 RMK AO2 SLP183 T01390100
KEQY 212253Z AUTO 00000KT 10SM BKN060 OVC090 14/10 A3006 RMK AO2 SLP193 T01440100
KJQF 212250Z 00000KT 10SM SCT048 BKN055 BKN065 14/09 A3010
KEHO 212245Z AUTO 00000KT 10SM RA SCT015 SCT037 OVC055 13/09 A3007 RMK AO2 P0001 T01250085

CLT TRACON HAZARD

CLT Convection Gates CLT Icing Gates
Forecast Surface Map Loop / Collaborative Convective Forecast Product / Vertical Wind Profile
Weather Map

 

AIRMETs & SIGMETS/ Southeast Radar loop / Satellite Image (click on image to enlarge)
Weather Map Southeast Radar Loop

satellite